sensor_id;sensor_type;location;lat;lon;timestamp;P1;durP1;ratioP1;P2;durP2;ratioP2
14116;SDS011;7137;51.436;6.544;2024-03-07T00:02:46;62.03;;;38.97;;
14116;SDS011;7137;51.436;6.544;2024-03-07T00:05:49;58.73;;;38.73;;
14116;SDS011;7137;51.436;6.544;2024-03-07T00:08:52;68.33;;;40.57;;
14116;SDS011;7137;51.436;6.544;2024-03-07T00:11:55;65.60;;;40.43;;
14116;SDS011;7137;51.436;6.544;2024-03-07T00:14:56;63.37;;;40.03;;
14116;SDS011;7137;51.436;6.544;2024-03-07T00:17:58;63.23;;;40.00;;
14116;SDS011;7137;51.436;6.544;2024-03-07T00:21:00;60.97;;;39.87;;
14116;SDS011;7137;51.436;6.544;2024-03-07T00:24:04;64.73;;;42.03;;
14116;SDS011;7137;51.436;6.544;2024-03-07T00:27:06;65.27;;;40.87;;
14116;SDS011;7137;51.436;6.544;2024-03-07T00:30:08;68.07;;;40.50;;
14116;SDS011;7137;51.436;6.544;2024-03-07T00:33:10;64.27;;;40.57;;
14116;SDS011;7137;51.436;6.544;2024-03-07T00:36:11;62.10;;;41.23;;
14116;SDS011;7137;51.436;6.544;2024-03-07T00:39:14;60.80;;;39.73;;
14116;SDS011;7137;51.436;6.544;2024-03-07T00:42:15;60.77;;;40.70;;
14116;SDS011;7137;51.436;6.544;2024-03-07T00:45:18;60.70;;;39.23;;
14116;SDS011;7137;51.436;6.544;2024-03-07T00:48:19;61.57;;;40.03;;
14116;SDS011;7137;51.436;6.544;2024-03-07T00:51:21;61.00;;;38.43;;
14116;SDS011;7137;51.436;6.544;2024-03-07T00:54:24;54.97;;;37.93;;
14116;SDS011;7137;51.436;6.544;2024-03-07T00:57:25;54.97;;;37.93;;
14116;SDS011;7137;51.436;6.544;2024-03-07T01:00:27;55.33;;;39.03;;
14116;SDS011;7137;51.436;6.544;2024-03-07T01:03:28;56.53;;;37.93;;
14116;SDS011;7137;51.436;6.544;2024-03-07T01:06:30;54.80;;;36.47;;
14116;SDS011;7137;51.436;6.544;2024-03-07T01:09:34;59.67;;;37.70;;
14116;SDS011;7137;51.436;6.544;2024-03-07T01:12:36;61.90;;;38.23;;
14116;SDS011;7137;51.436;6.544;2024-03-07T01:15:37;62.37;;;39.60;;
14116;SDS011;7137;51.436;6.544;2024-03-07T01:18:39;61.73;;;39.97;;
14116;SDS011;7137;51.436;6.544;2024-03-07T01:21:40;62.63;;;39.73;;
14116;SDS011;7137;51.436;6.544;2024-03-07T01:24:43;63.00;;;40.70;;
14116;SDS011;7137;51.436;6.544;2024-03-07T01:27:45;64.83;;;40.97;;
14116;SDS011;7137;51.436;6.544;2024-03-07T01:30:47;66.67;;;41.13;;
14116;SDS011;7137;51.436;6.544;2024-03-07T01:33:49;66.13;;;40.43;;
14116;SDS011;7137;51.436;6.544;2024-03-07T01:36:50;67.67;;;41.70;;
14116;SDS011;7137;51.436;6.544;2024-03-07T01:39:53;66.37;;;41.03;;
14116;SDS011;7137;51.436;6.544;2024-03-07T01:42:55;67.10;;;41.27;;
14116;SDS011;7137;51.436;6.544;2024-03-07T01:45:57;70.93;;;40.87;;
14116;SDS011;7137;51.436;6.544;2024-03-07T01:48:59;65.50;;;41.63;;
14116;SDS011;7137;51.436;6.544;2024-03-07T01:52:01;65.50;;;41.73;;
14116;SDS011;7137;51.436;6.544;2024-03-07T01:55:07;68.03;;;43.40;;
14116;SDS011;7137;51.436;6.544;2024-03-07T01:58:10;67.50;;;43.83;;
14116;SDS011;7137;51.436;6.544;2024-03-07T02:01:18;74.37;;;44.93;;
14116;SDS011;7137;51.436;6.544;2024-03-07T02:04:20;69.17;;;44.77;;
14116;SDS011;7137;51.436;6.544;2024-03-07T02:07:21;69.53;;;44.73;;
14116;SDS011;7137;51.436;6.544;2024-03-07T02:10:24;77.43;;;45.00;;
14116;SDS011;7137;51.436;6.544;2024-03-07T02:13:26;74.80;;;44.23;;
14116;SDS011;7137;51.436;6.544;2024-03-07T02:16:27;73.47;;;44.23;;
14116;SDS011;7137;51.436;6.544;2024-03-07T02:19:29;76.37;;;46.13;;
14116;SDS011;7137;51.436;6.544;2024-03-07T02:22:33;74.20;;;47.30;;
14116;SDS011;7137;51.436;6.544;2024-03-07T02:25:34;74.40;;;47.30;;
14116;SDS011;7137;51.436;6.544;2024-03-07T02:28:37;81.53;;;47.07;;
14116;SDS011;7137;51.436;6.544;2024-03-07T02:31:39;75.10;;;48.67;;
14116;SDS011;7137;51.436;6.544;2024-03-07T02:34:41;80.37;;;46.07;;
14116;SDS011;7137;51.436;6.544;2024-03-07T02:37:44;75.13;;;45.97;;
14116;SDS011;7137;51.436;6.544;2024-03-07T02:40:47;75.77;;;47.73;;
14116;SDS011;7137;51.436;6.544;2024-03-07T02:43:48;73.07;;;45.37;;
14116;SDS011;7137;51.436;6.544;2024-03-07T02:46:50;76.40;;;47.53;;
14116;SDS011;7137;51.436;6.544;2024-03-07T02:49:51;77.87;;;46.87;;
14116;SDS011;7137;51.436;6.544;2024-03-07T02:52:54;74.37;;;45.93;;
14116;SDS011;7137;51.436;6.544;2024-03-07T02:55:55;77.77;;;46.57;;
14116;SDS011;7137;51.436;6.544;2024-03-07T02:58:57;73.53;;;47.30;;
14116;SDS011;7137;51.436;6.544;2024-03-07T03:01:59;79.70;;;48.80;;
14116;SDS011;7137;51.436;6.544;2024-03-07T03:05:00;75.37;;;46.07;;
14116;SDS011;7137;51.436;6.544;2024-03-07T03:08:04;79.93;;;47.70;;
14116;SDS011;7137;51.436;6.544;2024-03-07T03:11:07;73.73;;;47.43;;
14116;SDS011;7137;51.436;6.544;2024-03-07T03:14:09;74.00;;;47.57;;
14116;SDS011;7137;51.436;6.544;2024-03-07T03:17:11;75.10;;;47.17;;
14116;SDS011;7137;51.436;6.544;2024-03-07T03:20:14;73.47;;;46.40;;
14116;SDS011;7137;51.436;6.544;2024-03-07T03:23:25;76.27;;;46.73;;
14116;SDS011;7137;51.436;6.544;2024-03-07T03:26:27;74.87;;;45.30;;
14116;SDS011;7137;51.436;6.544;2024-03-07T03:29:28;75.50;;;46.67;;
14116;SDS011;7137;51.436;6.544;2024-03-07T03:32:30;72.03;;;46.27;;
14116;SDS011;7137;51.436;6.544;2024-03-07T03:35:32;69.07;;;45.77;;
14116;SDS011;7137;51.436;6.544;2024-03-07T03:38:36;78.63;;;47.17;;
14116;SDS011;7137;51.436;6.544;2024-03-07T03:41:37;72.23;;;47.87;;
14116;SDS011;7137;51.436;6.544;2024-03-07T03:44:39;73.20;;;45.87;;
14116;SDS011;7137;51.436;6.544;2024-03-07T03:47:40;72.47;;;46.90;;
14116;SDS011;7137;51.436;6.544;2024-03-07T03:50:43;74.20;;;46.50;;
14116;SDS011;7137;51.436;6.544;2024-03-07T03:53:47;73.53;;;48.43;;
14116;SDS011;7137;51.436;6.544;2024-03-07T03:56:49;74.87;;;48.03;;
14116;SDS011;7137;51.436;6.544;2024-03-07T03:59:50;73.00;;;47.33;;
14116;SDS011;7137;51.436;6.544;2024-03-07T04:02:52;73.63;;;47.30;;
14116;SDS011;7137;51.436;6.544;2024-03-07T04:05:53;76.43;;;48.17;;
14116;SDS011;7137;51.436;6.544;2024-03-07T04:08:57;76.23;;;47.63;;
14116;SDS011;7137;51.436;6.544;2024-03-07T04:11:59;69.10;;;45.80;;
14116;SDS011;7137;51.436;6.544;2024-03-07T04:15:00;74.17;;;47.47;;
14116;SDS011;7137;51.436;6.544;2024-03-07T04:18:04;75.40;;;47.87;;
14116;SDS011;7137;51.436;6.544;2024-03-07T04:21:05;75.60;;;47.10;;
14116;SDS011;7137;51.436;6.544;2024-03-07T04:24:10;71.73;;;44.87;;
14116;SDS011;7137;51.436;6.544;2024-03-07T04:27:12;74.57;;;47.20;;
14116;SDS011;7137;51.436;6.544;2024-03-07T04:30:13;72.93;;;47.33;;
14116;SDS011;7137;51.436;6.544;2024-03-07T04:33:16;71.27;;;46.27;;
14116;SDS011;7137;51.436;6.544;2024-03-07T04:36:18;75.53;;;47.10;;
14116;SDS011;7137;51.436;6.544;2024-03-07T04:39:21;73.70;;;46.47;;
14116;SDS011;7137;51.436;6.544;2024-03-07T04:42:30;69.40;;;47.13;;
14116;SDS011;7137;51.436;6.544;2024-03-07T04:45:32;70.17;;;45.53;;
14116;SDS011;7137;51.436;6.544;2024-03-07T04:48:33;73.90;;;45.77;;
14116;SDS011;7137;51.436;6.544;2024-03-07T04:51:35;70.73;;;45.87;;
14116;SDS011;7137;51.436;6.544;2024-03-07T04:54:38;71.37;;;45.97;;
14116;SDS011;7137;51.436;6.544;2024-03-07T04:57:40;68.00;;;44.87;;
14116;SDS011;7137;51.436;6.544;2024-03-07T05:00:41;75.40;;;46.67;;
14116;SDS011;7137;51.436;6.544;2024-03-07T05:03:43;68.87;;;44.47;;
14116;SDS011;7137;51.436;6.544;2024-03-07T05:06:44;66.83;;;44.00;;
14116;SDS011;7137;51.436;6.544;2024-03-07T05:09:49;71.73;;;45.53;;
14116;SDS011;7137;51.436;6.544;2024-03-07T05:12:50;69.87;;;43.37;;
14116;SDS011;7137;51.436;6.544;2024-03-07T05:15:52;68.47;;;44.67;;
14116;SDS011;7137;51.436;6.544;2024-03-07T05:18:53;70.63;;;45.27;;
14116;SDS011;7137;51.436;6.544;2024-03-07T05:21:58;66.33;;;45.17;;
14116;SDS011;7137;51.436;6.544;2024-03-07T05:25:01;69.20;;;44.37;;
14116;SDS011;7137;51.436;6.544;2024-03-07T05:28:05;74.70;;;45.23;;
14116;SDS011;7137;51.436;6.544;2024-03-07T05:31:07;68.97;;;43.83;;
14116;SDS011;7137;51.436;6.544;2024-03-07T05:34:12;69.20;;;44.97;;
14116;SDS011;7137;51.436;6.544;2024-03-07T05:37:14;69.43;;;43.53;;
14116;SDS011;7137;51.436;6.544;2024-03-07T05:40:17;69.47;;;45.33;;
14116;SDS011;7137;51.436;6.544;2024-03-07T05:43:19;71.57;;;43.73;;
14116;SDS011;7137;51.436;6.544;2024-03-07T05:46:21;68.00;;;44.87;;
14116;SDS011;7137;51.436;6.544;2024-03-07T05:49:22;69.70;;;45.53;;
14116;SDS011;7137;51.436;6.544;2024-03-07T05:52:24;69.00;;;45.87;;
14116;SDS011;7137;51.436;6.544;2024-03-07T05:55:26;71.67;;;45.37;;
14116;SDS011;7137;51.436;6.544;2024-03-07T05:58:28;72.13;;;45.67;;
14116;SDS011;7137;51.436;6.544;2024-03-07T06:01:29;67.40;;;43.77;;
14116;SDS011;7137;51.436;6.544;2024-03-07T06:04:32;72.33;;;46.27;;
14116;SDS011;7137;51.436;6.544;2024-03-07T06:07:34;74.97;;;46.90;;
14116;SDS011;7137;51.436;6.544;2024-03-07T06:10:37;77.50;;;46.80;;
14116;SDS011;7137;51.436;6.544;2024-03-07T06:13:41;74.27;;;45.53;;
14116;SDS011;7137;51.436;6.544;2024-03-07T06:16:43;69.60;;;45.67;;
14116;SDS011;7137;51.436;6.544;2024-03-07T06:19:45;68.10;;;43.03;;
14116;SDS011;7137;51.436;6.544;2024-03-07T06:22:48;65.47;;;42.97;;
14116;SDS011;7137;51.436;6.544;2024-03-07T06:25:51;64.37;;;42.07;;
14116;SDS011;7137;51.436;6.544;2024-03-07T06:28:54;62.93;;;43.20;;
14116;SDS011;7137;51.436;6.544;2024-03-07T06:31:56;63.80;;;44.27;;
14116;SDS011;7137;51.436;6.544;2024-03-07T06:34:58;62.20;;;42.87;;
14116;SDS011;7137;51.436;6.544;2024-03-07T06:38:01;64.23;;;43.27;;
14116;SDS011;7137;51.436;6.544;2024-03-07T06:41:04;63.00;;;41.73;;
14116;SDS011;7137;51.436;6.544;2024-03-07T06:44:06;64.70;;;42.43;;
14116;SDS011;7137;51.436;6.544;2024-03-07T06:47:09;60.70;;;41.53;;
14116;SDS011;7137;51.436;6.544;2024-03-07T06:50:11;64.87;;;43.63;;
14116;SDS011;7137;51.436;6.544;2024-03-07T06:53:14;60.50;;;41.47;;
14116;SDS011;7137;51.436;6.544;2024-03-07T06:56:17;60.67;;;40.67;;
14116;SDS011;7137;51.436;6.544;2024-03-07T06:59:19;66.77;;;43.00;;
14116;SDS011;7137;51.436;6.544;2024-03-07T07:02:20;61.93;;;43.63;;
14116;SDS011;7137;51.436;6.544;2024-03-07T07:05:22;67.47;;;44.53;;
14116;SDS011;7137;51.436;6.544;2024-03-07T07:08:23;67.27;;;44.57;;
14116;SDS011;7137;51.436;6.544;2024-03-07T07:11:26;61.90;;;42.53;;
14116;SDS011;7137;51.436;6.544;2024-03-07T07:14:28;65.87;;;43.30;;
14116;SDS011;7137;51.436;6.544;2024-03-07T07:17:30;62.43;;;42.93;;
14116;SDS011;7137;51.436;6.544;2024-03-07T07:20:31;58.50;;;38.77;;
14116;SDS011;7137;51.436;6.544;2024-03-07T07:23:34;58.90;;;42.40;;
14116;SDS011;7137;51.436;6.544;2024-03-07T07:26:37;59.37;;;42.97;;
14116;SDS011;7137;51.436;6.544;2024-03-07T07:29:38;60.00;;;43.03;;
14116;SDS011;7137;51.436;6.544;2024-03-07T07:32:41;56.10;;;40.70;;
14116;SDS011;7137;51.436;6.544;2024-03-07T07:35:44;59.10;;;41.33;;
14116;SDS011;7137;51.436;6.544;2024-03-07T07:38:46;49.33;;;39.13;;
14116;SDS011;7137;51.436;6.544;2024-03-07T07:41:49;49.87;;;34.07;;
14116;SDS011;7137;51.436;6.544;2024-03-07T07:44:50;43.00;;;32.40;;
14116;SDS011;7137;51.436;6.544;2024-03-07T07:47:52;45.00;;;36.07;;
14116;SDS011;7137;51.436;6.544;2024-03-07T07:50:54;43.03;;;31.50;;
14116;SDS011;7137;51.436;6.544;2024-03-07T07:53:56;44.47;;;33.13;;
14116;SDS011;7137;51.436;6.544;2024-03-07T07:56:59;38.17;;;30.33;;
14116;SDS011;7137;51.436;6.544;2024-03-07T08:00:00;41.40;;;30.10;;
14116;SDS011;7137;51.436;6.544;2024-03-07T08:03:03;33.60;;;28.13;;
14116;SDS011;7137;51.436;6.544;2024-03-07T08:06:06;35.23;;;29.53;;
14116;SDS011;7137;51.436;6.544;2024-03-07T08:09:07;34.53;;;27.50;;
14116;SDS011;7137;51.436;6.544;2024-03-07T08:12:12;33.40;;;27.33;;
14116;SDS011;7137;51.436;6.544;2024-03-07T08:15:14;30.83;;;25.23;;
14116;SDS011;7137;51.436;6.544;2024-03-07T08:18:16;32.73;;;25.40;;
14116;SDS011;7137;51.436;6.544;2024-03-07T08:21:17;33.50;;;26.67;;
14116;SDS011;7137;51.436;6.544;2024-03-07T08:24:19;28.87;;;24.93;;
14116;SDS011;7137;51.436;6.544;2024-03-07T08:27:22;28.80;;;23.97;;
14116;SDS011;7137;51.436;6.544;2024-03-07T08:30:24;27.10;;;23.20;;
14116;SDS011;7137;51.436;6.544;2024-03-07T08:33:26;27.80;;;24.20;;
14116;SDS011;7137;51.436;6.544;2024-03-07T08:36:28;31.43;;;24.23;;
14116;SDS011;7137;51.436;6.544;2024-03-07T08:39:29;27.80;;;23.47;;
14116;SDS011;7137;51.436;6.544;2024-03-07T08:42:33;30.10;;;23.37;;
14116;SDS011;7137;51.436;6.544;2024-03-07T08:45:35;28.23;;;22.40;;
14116;SDS011;7137;51.436;6.544;2024-03-07T08:48:36;28.03;;;24.27;;
14116;SDS011;7137;51.436;6.544;2024-03-07T08:51:38;28.57;;;23.77;;
14116;SDS011;7137;51.436;6.544;2024-03-07T08:54:39;27.47;;;22.63;;
14116;SDS011;7137;51.436;6.544;2024-03-07T08:57:43;25.40;;;22.23;;
14116;SDS011;7137;51.436;6.544;2024-03-07T09:00:46;27.17;;;22.03;;
14116;SDS011;7137;51.436;6.544;2024-03-07T09:03:48;24.73;;;21.67;;
14116;SDS011;7137;51.436;6.544;2024-03-07T09:06:50;26.43;;;22.37;;
14116;SDS011;7137;51.436;6.544;2024-03-07T09:09:52;25.90;;;22.17;;
14116;SDS011;7137;51.436;6.544;2024-03-07T09:12:54;26.37;;;20.33;;
14116;SDS011;7137;51.436;6.544;2024-03-07T09:15:57;24.70;;;20.93;;
14116;SDS011;7137;51.436;6.544;2024-03-07T09:18:58;26.53;;;21.63;;
14116;SDS011;7137;51.436;6.544;2024-03-07T09:22:00;25.60;;;20.30;;
14116;SDS011;7137;51.436;6.544;2024-03-07T09:25:03;24.73;;;21.33;;
14116;SDS011;7137;51.436;6.544;2024-03-07T09:28:07;22.33;;;19.50;;
14116;SDS011;7137;51.436;6.544;2024-03-07T09:31:09;21.33;;;18.33;;
14116;SDS011;7137;51.436;6.544;2024-03-07T09:34:10;22.10;;;18.17;;
14116;SDS011;7137;51.436;6.544;2024-03-07T09:37:13;22.90;;;18.30;;
14116;SDS011;7137;51.436;6.544;2024-03-07T09:40:14;20.53;;;17.77;;
14116;SDS011;7137;51.436;6.544;2024-03-07T09:43:17;22.30;;;17.10;;
14116;SDS011;7137;51.436;6.544;2024-03-07T09:46:21;19.77;;;16.13;;
14116;SDS011;7137;51.436;6.544;2024-03-07T09:49:24;19.87;;;16.03;;
14116;SDS011;7137;51.436;6.544;2024-03-07T09:52:26;20.57;;;16.30;;
14116;SDS011;7137;51.436;6.544;2024-03-07T09:55:30;19.63;;;15.93;;
14116;SDS011;7137;51.436;6.544;2024-03-07T09:58:33;19.00;;;15.20;;
14116;SDS011;7137;51.436;6.544;2024-03-07T10:01:37;18.53;;;16.17;;
14116;SDS011;7137;51.436;6.544;2024-03-07T10:04:42;19.50;;;16.10;;
14116;SDS011;7137;51.436;6.544;2024-03-07T10:07:45;19.43;;;16.00;;
14116;SDS011;7137;51.436;6.544;2024-03-07T10:10:46;20.10;;;15.17;;
14116;SDS011;7137;51.436;6.544;2024-03-07T10:13:52;19.63;;;15.33;;
14116;SDS011;7137;51.436;6.544;2024-03-07T10:16:55;21.90;;;17.33;;
14116;SDS011;7137;51.436;6.544;2024-03-07T10:19:57;19.30;;;15.93;;
14116;SDS011;7137;51.436;6.544;2024-03-07T10:23:01;19.73;;;15.97;;
14116;SDS011;7137;51.436;6.544;2024-03-07T10:26:03;20.03;;;15.17;;
14116;SDS011;7137;51.436;6.544;2024-03-07T10:29:07;21.43;;;17.20;;
14116;SDS011;7137;51.436;6.544;2024-03-07T10:32:10;21.30;;;17.00;;
14116;SDS011;7137;51.436;6.544;2024-03-07T10:35:13;21.93;;;17.40;;
14116;SDS011;7137;51.436;6.544;2024-03-07T10:38:15;21.37;;;16.97;;
14116;SDS011;7137;51.436;6.544;2024-03-07T10:41:18;19.90;;;14.93;;
14116;SDS011;7137;51.436;6.544;2024-03-07T10:44:25;19.23;;;15.17;;
14116;SDS011;7137;51.436;6.544;2024-03-07T10:47:28;20.30;;;15.97;;
14116;SDS011;7137;51.436;6.544;2024-03-07T10:50:38;20.43;;;16.27;;
14116;SDS011;7137;51.436;6.544;2024-03-07T10:53:45;20.77;;;15.27;;
14116;SDS011;7137;51.436;6.544;2024-03-07T10:57:01;21.77;;;15.57;;
14116;SDS011;7137;51.436;6.544;2024-03-07T11:00:13;19.83;;;15.87;;
14116;SDS011;7137;51.436;6.544;2024-03-07T11:03:30;20.77;;;15.77;;
14116;SDS011;7137;51.436;6.544;2024-03-07T11:06:33;20.47;;;16.70;;
14116;SDS011;7137;51.436;6.544;2024-03-07T11:09:36;20.03;;;16.33;;
14116;SDS011;7137;51.436;6.544;2024-03-07T11:12:41;20.33;;;16.83;;
14116;SDS011;7137;51.436;6.544;2024-03-07T11:15:45;19.17;;;16.60;;
14116;SDS011;7137;51.436;6.544;2024-03-07T11:22:28;18.90;;;16.63;;
14116;SDS011;7137;51.436;6.544;2024-03-07T11:25:30;19.80;;;16.30;;
14116;SDS011;7137;51.436;6.544;2024-03-07T11:28:33;19.40;;;15.73;;
14116;SDS011;7137;51.436;6.544;2024-03-07T11:31:38;19.10;;;15.13;;
14116;SDS011;7137;51.436;6.544;2024-03-07T11:34:40;20.13;;;16.50;;
14116;SDS011;7137;51.436;6.544;2024-03-07T11:37:43;18.27;;;15.80;;
14116;SDS011;7137;51.436;6.544;2024-03-07T11:40:50;20.17;;;16.03;;
14116;SDS011;7137;51.436;6.544;2024-03-07T11:43:52;19.87;;;16.33;;
14116;SDS011;7137;51.436;6.544;2024-03-07T11:46:56;21.20;;;15.73;;
14116;SDS011;7137;51.436;6.544;2024-03-07T11:49:59;19.63;;;15.47;;
14116;SDS011;7137;51.436;6.544;2024-03-07T11:53:00;20.27;;;16.53;;
14116;SDS011;7137;51.436;6.544;2024-03-07T11:56:05;19.03;;;16.00;;
14116;SDS011;7137;51.436;6.544;2024-03-07T11:59:09;18.70;;;15.57;;
14116;SDS011;7137;51.436;6.544;2024-03-07T12:02:14;19.23;;;15.67;;
14116;SDS011;7137;51.436;6.544;2024-03-07T12:05:17;18.67;;;15.50;;
14116;SDS011;7137;51.436;6.544;2024-03-07T12:08:19;18.03;;;14.40;;
14116;SDS011;7137;51.436;6.544;2024-03-07T12:11:22;19.60;;;15.83;;
14116;SDS011;7137;51.436;6.544;2024-03-07T12:14:25;20.17;;;16.50;;
14116;SDS011;7137;51.436;6.544;2024-03-07T12:17:28;21.57;;;17.13;;
14116;SDS011;7137;51.436;6.544;2024-03-07T12:20:31;19.77;;;16.23;;
14116;SDS011;7137;51.436;6.544;2024-03-07T12:23:33;22.97;;;16.73;;
14116;SDS011;7137;51.436;6.544;2024-03-07T12:26:36;21.33;;;16.87;;
14116;SDS011;7137;51.436;6.544;2024-03-07T12:29:37;19.23;;;16.07;;
14116;SDS011;7137;51.436;6.544;2024-03-07T12:32:44;19.07;;;15.60;;
14116;SDS011;7137;51.436;6.544;2024-03-07T12:35:49;20.70;;;16.57;;
14116;SDS011;7137;51.436;6.544;2024-03-07T12:38:55;20.10;;;15.50;;
14116;SDS011;7137;51.436;6.544;2024-03-07T12:41:56;17.77;;;15.83;;
14116;SDS011;7137;51.436;6.544;2024-03-07T12:44:58;20.40;;;17.70;;
14116;SDS011;7137;51.436;6.544;2024-03-07T12:48:01;20.07;;;16.57;;
14116;SDS011;7137;51.436;6.544;2024-03-07T12:51:04;21.63;;;18.00;;
14116;SDS011;7137;51.436;6.544;2024-03-07T12:54:06;19.17;;;17.03;;
14116;SDS011;7137;51.436;6.544;2024-03-07T12:57:10;21.87;;;17.87;;
14116;SDS011;7137;51.436;6.544;2024-03-07T13:00:13;18.33;;;16.43;;
14116;SDS011;7137;51.436;6.544;2024-03-07T13:03:20;19.07;;;15.73;;
14116;SDS011;7137;51.436;6.544;2024-03-07T13:06:21;20.23;;;16.83;;
14116;SDS011;7137;51.436;6.544;2024-03-07T13:09:26;19.00;;;16.53;;
14116;SDS011;7137;51.436;6.544;2024-03-07T13:12:27;18.37;;;16.23;;
14116;SDS011;7137;51.436;6.544;2024-03-07T13:15:31;19.67;;;16.73;;
14116;SDS011;7137;51.436;6.544;2024-03-07T13:18:34;19.17;;;16.90;;
14116;SDS011;7137;51.436;6.544;2024-03-07T13:21:37;19.23;;;16.20;;
14116;SDS011;7137;51.436;6.544;2024-03-07T13:24:39;19.37;;;16.80;;
14116;SDS011;7137;51.436;6.544;2024-03-07T13:27:43;19.30;;;17.03;;
14116;SDS011;7137;51.436;6.544;2024-03-07T13:30:55;17.60;;;15.57;;
14116;SDS011;7137;51.436;6.544;2024-03-07T13:33:58;17.97;;;15.87;;
14116;SDS011;7137;51.436;6.544;2024-03-07T13:37:01;19.87;;;17.87;;
14116;SDS011;7137;51.436;6.544;2024-03-07T13:40:04;18.40;;;16.23;;
14116;SDS011;7137;51.436;6.544;2024-03-07T13:43:22;18.23;;;16.23;;
14116;SDS011;7137;51.436;6.544;2024-03-07T13:46:24;18.57;;;16.57;;
14116;SDS011;7137;51.436;6.544;2024-03-07T13:49:27;20.47;;;17.07;;
14116;SDS011;7137;51.436;6.544;2024-03-07T13:52:28;21.67;;;16.93;;
14116;SDS011;7137;51.436;6.544;2024-03-07T13:55:32;18.30;;;16.20;;
14116;SDS011;7137;51.436;6.544;2024-03-07T13:58:42;20.07;;;17.73;;
14116;SDS011;7137;51.436;6.544;2024-03-07T14:01:58;19.67;;;17.40;;
14116;SDS011;7137;51.436;6.544;2024-03-07T14:09:14;19.73;;;16.70;;
14116;SDS011;7137;51.436;6.544;2024-03-07T14:12:35;17.73;;;15.60;;
14116;SDS011;7137;51.436;6.544;2024-03-07T14:23:10;16.80;;;14.93;;
14116;SDS011;7137;51.436;6.544;2024-03-07T14:26:40;16.20;;;14.37;;
14116;SDS011;7137;51.436;6.544;2024-03-07T14:30:18;16.17;;;14.23;;
14116;SDS011;7137;51.436;6.544;2024-03-07T14:33:27;17.77;;;15.10;;
14116;SDS011;7137;51.436;6.544;2024-03-07T14:36:35;17.37;;;13.97;;
14116;SDS011;7137;51.436;6.544;2024-03-07T14:39:40;17.30;;;13.97;;
14116;SDS011;7137;51.436;6.544;2024-03-07T14:42:43;16.13;;;13.23;;
14116;SDS011;7137;51.436;6.544;2024-03-07T14:45:46;15.53;;;13.17;;
14116;SDS011;7137;51.436;6.544;2024-03-07T14:48:48;14.70;;;13.07;;
14116;SDS011;7137;51.436;6.544;2024-03-07T14:51:49;15.10;;;12.90;;
14116;SDS011;7137;51.436;6.544;2024-03-07T14:54:55;14.23;;;12.13;;
14116;SDS011;7137;51.436;6.544;2024-03-07T14:57:56;13.93;;;11.83;;
14116;SDS011;7137;51.436;6.544;2024-03-07T15:00:58;14.00;;;11.67;;
14116;SDS011;7137;51.436;6.544;2024-03-07T15:04:00;14.73;;;11.37;;
14116;SDS011;7137;51.436;6.544;2024-03-07T15:07:07;13.30;;;10.67;;
14116;SDS011;7137;51.436;6.544;2024-03-07T15:10:13;12.60;;;9.30;;
14116;SDS011;7137;51.436;6.544;2024-03-07T15:13:18;12.17;;;10.27;;
14116;SDS011;7137;51.436;6.544;2024-03-07T15:16:20;11.57;;;9.33;;
14116;SDS011;7137;51.436;6.544;2024-03-07T15:19:24;12.00;;;10.00;;
14116;SDS011;7137;51.436;6.544;2024-03-07T15:22:25;11.97;;;9.53;;
14116;SDS011;7137;51.436;6.544;2024-03-07T15:25:28;11.80;;;9.27;;
14116;SDS011;7137;51.436;6.544;2024-03-07T15:28:30;10.93;;;8.63;;
14116;SDS011;7137;51.436;6.544;2024-03-07T15:31:32;11.90;;;9.03;;
14116;SDS011;7137;51.436;6.544;2024-03-07T15:34:34;11.93;;;8.57;;
14116;SDS011;7137;51.436;6.544;2024-03-07T15:37:37;9.70;;;7.67;;
14116;SDS011;7137;51.436;6.544;2024-03-07T15:40:40;9.60;;;7.10;;
14116;SDS011;7137;51.436;6.544;2024-03-07T15:43:42;9.30;;;7.50;;
14116;SDS011;7137;51.436;6.544;2024-03-07T15:46:44;11.63;;;8.10;;
14116;SDS011;7137;51.436;6.544;2024-03-07T15:49:46;11.17;;;8.03;;
14116;SDS011;7137;51.436;6.544;2024-03-07T15:52:48;10.10;;;7.67;;
14116;SDS011;7137;51.436;6.544;2024-03-07T15:55:53;9.53;;;7.20;;
14116;SDS011;7137;51.436;6.544;2024-03-07T15:58:55;9.93;;;7.40;;
14116;SDS011;7137;51.436;6.544;2024-03-07T16:01:57;10.27;;;6.90;;
14116;SDS011;7137;51.436;6.544;2024-03-07T16:04:58;8.70;;;6.60;;
14116;SDS011;7137;51.436;6.544;2024-03-07T16:08:00;9.67;;;6.87;;
14116;SDS011;7137;51.436;6.544;2024-03-07T16:11:07;9.43;;;6.57;;
14116;SDS011;7137;51.436;6.544;2024-03-07T16:14:09;9.57;;;7.00;;
14116;SDS011;7137;51.436;6.544;2024-03-07T16:17:11;10.47;;;7.30;;
14116;SDS011;7137;51.436;6.544;2024-03-07T16:20:14;9.50;;;7.00;;
14116;SDS011;7137;51.436;6.544;2024-03-07T16:23:17;11.23;;;7.27;;
14116;SDS011;7137;51.436;6.544;2024-03-07T16:26:20;10.20;;;7.33;;
14116;SDS011;7137;51.436;6.544;2024-03-07T16:29:21;10.50;;;7.07;;
14116;SDS011;7137;51.436;6.544;2024-03-07T16:32:23;10.60;;;7.23;;
14116;SDS011;7137;51.436;6.544;2024-03-07T16:35:25;11.07;;;7.20;;
14116;SDS011;7137;51.436;6.544;2024-03-07T16:38:27;11.83;;;7.60;;
14116;SDS011;7137;51.436;6.544;2024-03-07T16:41:30;12.33;;;7.57;;
14116;SDS011;7137;51.436;6.544;2024-03-07T16:44:32;12.40;;;7.80;;
14116;SDS011;7137;51.436;6.544;2024-03-07T16:47:35;13.17;;;8.07;;
14116;SDS011;7137;51.436;6.544;2024-03-07T16:50:37;11.00;;;7.07;;
14116;SDS011;7137;51.436;6.544;2024-03-07T16:53:40;11.17;;;7.80;;
14116;SDS011;7137;51.436;6.544;2024-03-07T16:56:43;11.93;;;7.90;;
14116;SDS011;7137;51.436;6.544;2024-03-07T16:59:44;11.00;;;8.37;;
14116;SDS011;7137;51.436;6.544;2024-03-07T17:02:47;12.60;;;8.40;;
14116;SDS011;7137;51.436;6.544;2024-03-07T17:05:49;12.00;;;9.03;;
14116;SDS011;7137;51.436;6.544;2024-03-07T17:08:52;11.90;;;9.17;;
14116;SDS011;7137;51.436;6.544;2024-03-07T17:11:56;12.17;;;9.70;;
14116;SDS011;7137;51.436;6.544;2024-03-07T17:14:58;13.33;;;10.87;;
14116;SDS011;7137;51.436;6.544;2024-03-07T17:18:00;15.83;;;11.87;;
14116;SDS011;7137;51.436;6.544;2024-03-07T17:21:01;16.97;;;12.97;;
14116;SDS011;7137;51.436;6.544;2024-03-07T17:24:06;17.50;;;12.67;;
14116;SDS011;7137;51.436;6.544;2024-03-07T17:27:08;19.83;;;13.70;;
14116;SDS011;7137;51.436;6.544;2024-03-07T17:30:10;16.50;;;13.70;;
14116;SDS011;7137;51.436;6.544;2024-03-07T17:33:12;18.80;;;14.67;;
14116;SDS011;7137;51.436;6.544;2024-03-07T17:36:15;20.13;;;14.73;;
14116;SDS011;7137;51.436;6.544;2024-03-07T17:39:18;18.23;;;13.80;;
14116;SDS011;7137;51.436;6.544;2024-03-07T17:42:21;18.27;;;14.13;;
14116;SDS011;7137;51.436;6.544;2024-03-07T17:45:23;19.37;;;15.47;;
14116;SDS011;7137;51.436;6.544;2024-03-07T17:48:27;20.37;;;15.40;;
14116;SDS011;7137;51.436;6.544;2024-03-07T17:51:29;20.07;;;15.53;;
14116;SDS011;7137;51.436;6.544;2024-03-07T17:54:31;21.00;;;15.97;;
14116;SDS011;7137;51.436;6.544;2024-03-07T17:57:34;21.33;;;16.27;;
14116;SDS011;7137;51.436;6.544;2024-03-07T18:00:35;23.20;;;17.90;;
14116;SDS011;7137;51.436;6.544;2024-03-07T18:03:37;21.67;;;16.30;;
14116;SDS011;7137;51.436;6.544;2024-03-07T18:06:38;23.00;;;17.17;;
14116;SDS011;7137;51.436;6.544;2024-03-07T18:09:40;24.73;;;17.07;;
14116;SDS011;7137;51.436;6.544;2024-03-07T18:12:43;24.60;;;18.27;;
14116;SDS011;7137;51.436;6.544;2024-03-07T18:15:47;23.20;;;17.10;;
14116;SDS011;7137;51.436;6.544;2024-03-07T18:18:49;27.00;;;18.80;;
14116;SDS011;7137;51.436;6.544;2024-03-07T18:21:53;26.57;;;19.10;;
14116;SDS011;7137;51.436;6.544;2024-03-07T18:24:54;26.83;;;18.80;;